Eastry, United Kingdom
Current Conditions -  °F | °C
As of 6:50 PM on Thursday 29 Jan 2015 (Local Time) from EGMD Reporting Station
Scattered Clouds Scattered Clouds  
Wind Chill: -3°   Ceiling: Unl
Heat Index:   Visibility: 6mi
Dew Point:   Wind: 13mph
Humidity: 93%   Direction: 300°WNW
Pressure: 28.85"   Gusts: NA
Location:  51.25°N, 1.31°E
Report Text: EGMD 291850Z 30011KT 9999 FEW008 SCT020 02/01 Q0977 RESN
Loading
Personal Weather Stations






























Interactive Weather Map New forecast layout! Learn more

10-Day Weather Forecast

Advertisements
Track Severe Weather on mobile